sensor_id;sensor_type;location;lat;lon;timestamp;P1;durP1;ratioP1;P2;durP2;ratioP2
39156;SDS011;24889;42.424;25.604;2022-10-16T00:01:18;13.52;;;7.50;;
39156;SDS011;24889;42.424;25.604;2022-10-16T00:03:45;12.65;;;7.05;;
39156;SDS011;24889;42.424;25.604;2022-10-16T00:06:11;9.68;;;6.13;;
39156;SDS011;24889;42.424;25.604;2022-10-16T00:08:38;12.35;;;7.22;;
39156;SDS011;24889;42.424;25.604;2022-10-16T00:11:05;8.50;;;6.60;;
39156;SDS011;24889;42.424;25.604;2022-10-16T00:13:40;13.55;;;7.05;;
39156;SDS011;24889;42.424;25.604;2022-10-16T00:16:07;11.55;;;6.95;;
39156;SDS011;24889;42.424;25.604;2022-10-16T00:18:33;10.85;;;5.95;;
39156;SDS011;24889;42.424;25.604;2022-10-16T00:21:03;12.00;;;6.43;;
39156;SDS011;24889;42.424;25.604;2022-10-16T00:23:30;11.32;;;6.57;;
39156;SDS011;24889;42.424;25.604;2022-10-16T00:25:57;12.70;;;6.68;;
39156;SDS011;24889;42.424;25.604;2022-10-16T00:28:24;11.73;;;6.60;;
39156;SDS011;24889;42.424;25.604;2022-10-16T00:30:50;13.02;;;7.97;;
39156;SDS011;24889;42.424;25.604;2022-10-16T00:33:16;9.82;;;6.82;;
39156;SDS011;24889;42.424;25.604;2022-10-16T00:35:42;10.03;;;6.40;;
39156;SDS011;24889;42.424;25.604;2022-10-16T00:38:08;12.02;;;6.38;;
39156;SDS011;24889;42.424;25.604;2022-10-16T00:40:33;20.67;;;7.87;;
39156;SDS011;24889;42.424;25.604;2022-10-16T00:42:59;13.43;;;7.27;;
39156;SDS011;24889;42.424;25.604;2022-10-16T00:45:24;12.13;;;7.50;;
39156;SDS011;24889;42.424;25.604;2022-10-16T00:47:50;9.40;;;6.70;;
39156;SDS011;24889;42.424;25.604;2022-10-16T00:50:29;11.15;;;7.18;;
39156;SDS011;24889;42.424;25.604;2022-10-16T00:52:57;9.27;;;6.32;;
39156;SDS011;24889;42.424;25.604;2022-10-16T00:55:24;10.30;;;6.05;;
39156;SDS011;24889;42.424;25.604;2022-10-16T00:57:51;11.07;;;6.00;;
39156;SDS011;24889;42.424;25.604;2022-10-16T01:00:19;11.05;;;6.85;;
39156;SDS011;24889;42.424;25.604;2022-10-16T01:02:53;8.85;;;5.93;;
39156;SDS011;24889;42.424;25.604;2022-10-16T01:05:24;11.02;;;6.07;;
39156;SDS011;24889;42.424;25.604;2022-10-16T01:15:36;8.90;;;6.43;;
39156;SDS011;24889;42.424;25.604;2022-10-16T01:21:10;11.48;;;5.63;;
39156;SDS011;24889;42.424;25.604;2022-10-16T01:29:32;9.45;;;5.57;;
39156;SDS011;24889;42.424;25.604;2022-10-16T01:32:09;32.13;;;20.13;;
39156;SDS011;24889;42.424;25.604;2022-10-16T01:38:03;12.25;;;6.07;;
39156;SDS011;24889;42.424;25.604;2022-10-16T01:40:34;7.50;;;6.15;;
39156;SDS011;24889;42.424;25.604;2022-10-16T01:43:12;14.65;;;8.15;;
39156;SDS011;24889;42.424;25.604;2022-10-16T01:45:43;10.18;;;7.18;;
39156;SDS011;24889;42.424;25.604;2022-10-16T01:48:12;12.45;;;7.38;;
39156;SDS011;24889;42.424;25.604;2022-10-16T01:50:41;9.32;;;5.95;;
39156;SDS011;24889;42.424;25.604;2022-10-16T01:53:10;12.10;;;5.70;;
39156;SDS011;24889;42.424;25.604;2022-10-16T01:55:39;9.43;;;7.05;;
39156;SDS011;24889;42.424;25.604;2022-10-16T01:58:10;12.68;;;8.35;;
39156;SDS011;24889;42.424;25.604;2022-10-16T02:00:38;15.02;;;8.82;;
39156;SDS011;24889;42.424;25.604;2022-10-16T02:03:07;8.15;;;6.05;;
39156;SDS011;24889;42.424;25.604;2022-10-16T02:05:52;11.68;;;5.60;;
39156;SDS011;24889;42.424;25.604;2022-10-16T02:08:24;14.77;;;5.68;;
39156;SDS011;24889;42.424;25.604;2022-10-16T02:10:54;10.88;;;5.78;;
39156;SDS011;24889;42.424;25.604;2022-10-16T02:13:24;11.85;;;6.35;;
39156;SDS011;24889;42.424;25.604;2022-10-16T02:15:58;7.72;;;5.45;;
39156;SDS011;24889;42.424;25.604;2022-10-16T02:18:23;9.93;;;5.95;;
39156;SDS011;24889;42.424;25.604;2022-10-16T02:23:37;8.52;;;5.93;;
39156;SDS011;24889;42.424;25.604;2022-10-16T02:26:17;7.82;;;6.28;;
39156;SDS011;24889;42.424;25.604;2022-10-16T02:28:53;10.27;;;6.25;;
39156;SDS011;24889;42.424;25.604;2022-10-16T02:31:25;10.05;;;6.05;;
39156;SDS011;24889;42.424;25.604;2022-10-16T02:33:54;8.88;;;6.05;;
39156;SDS011;24889;42.424;25.604;2022-10-16T02:36:23;12.98;;;7.00;;
39156;SDS011;24889;42.424;25.604;2022-10-16T02:38:50;9.93;;;5.82;;
39156;SDS011;24889;42.424;25.604;2022-10-16T02:41:17;13.68;;;6.55;;
39156;SDS011;24889;42.424;25.604;2022-10-16T02:43:43;9.40;;;6.43;;
39156;SDS011;24889;42.424;25.604;2022-10-16T02:46:08;13.83;;;6.87;;
39156;SDS011;24889;42.424;25.604;2022-10-16T02:48:34;10.10;;;6.80;;
39156;SDS011;24889;42.424;25.604;2022-10-16T02:55:51;8.80;;;5.47;;
39156;SDS011;24889;42.424;25.604;2022-10-16T02:58:16;7.63;;;5.33;;
39156;SDS011;24889;42.424;25.604;2022-10-16T03:00:42;10.10;;;5.27;;
39156;SDS011;24889;42.424;25.604;2022-10-16T03:03:07;8.20;;;5.50;;
39156;SDS011;24889;42.424;25.604;2022-10-16T03:05:33;11.50;;;6.67;;
39156;SDS011;24889;42.424;25.604;2022-10-16T03:07:58;7.70;;;5.10;;
39156;SDS011;24889;42.424;25.604;2022-10-16T03:10:25;8.63;;;5.20;;
39156;SDS011;24889;42.424;25.604;2022-10-16T03:12:51;13.07;;;5.55;;
39156;SDS011;24889;42.424;25.604;2022-10-16T03:15:17;11.13;;;5.23;;
39156;SDS011;24889;42.424;25.604;2022-10-16T03:17:42;6.90;;;4.67;;
39156;SDS011;24889;42.424;25.604;2022-10-16T03:20:08;6.82;;;5.22;;
39156;SDS011;24889;42.424;25.604;2022-10-16T03:22:34;9.82;;;5.03;;
39156;SDS011;24889;42.424;25.604;2022-10-16T03:24:59;10.65;;;5.00;;
39156;SDS011;24889;42.424;25.604;2022-10-16T03:27:25;6.63;;;4.77;;
39156;SDS011;24889;42.424;25.604;2022-10-16T03:29:50;9.83;;;4.80;;
39156;SDS011;24889;42.424;25.604;2022-10-16T03:32:16;7.70;;;4.77;;
39156;SDS011;24889;42.424;25.604;2022-10-16T03:34:41;9.87;;;5.03;;
39156;SDS011;24889;42.424;25.604;2022-10-16T03:37:07;7.83;;;4.70;;
39156;SDS011;24889;42.424;25.604;2022-10-16T03:39:32;8.17;;;4.40;;
39156;SDS011;24889;42.424;25.604;2022-10-16T03:41:58;8.07;;;4.40;;
39156;SDS011;24889;42.424;25.604;2022-10-16T03:44:23;8.63;;;4.43;;
39156;SDS011;24889;42.424;25.604;2022-10-16T03:46:49;13.63;;;6.47;;
39156;SDS011;24889;42.424;25.604;2022-10-16T03:49:14;10.03;;;5.30;;
39156;SDS011;24889;42.424;25.604;2022-10-16T03:51:40;8.80;;;4.47;;
39156;SDS011;24889;42.424;25.604;2022-10-16T03:54:05;6.50;;;4.73;;
39156;SDS011;24889;42.424;25.604;2022-10-16T03:56:30;5.77;;;4.47;;
39156;SDS011;24889;42.424;25.604;2022-10-16T03:58:56;8.77;;;4.87;;
39156;SDS011;24889;42.424;25.604;2022-10-16T04:01:21;6.47;;;4.60;;
39156;SDS011;24889;42.424;25.604;2022-10-16T04:03:47;11.33;;;5.40;;
39156;SDS011;24889;42.424;25.604;2022-10-16T04:06:12;9.63;;;4.70;;
39156;SDS011;24889;42.424;25.604;2022-10-16T04:08:38;5.60;;;5.00;;
39156;SDS011;24889;42.424;25.604;2022-10-16T04:11:04;9.40;;;5.97;;
39156;SDS011;24889;42.424;25.604;2022-10-16T04:13:30;8.70;;;5.13;;
39156;SDS011;24889;42.424;25.604;2022-10-16T04:15:55;10.00;;;4.65;;
39156;SDS011;24889;42.424;25.604;2022-10-16T04:18:21;11.67;;;4.60;;
39156;SDS011;24889;42.424;25.604;2022-10-16T04:20:46;12.13;;;5.77;;
39156;SDS011;24889;42.424;25.604;2022-10-16T04:23:12;10.20;;;5.00;;
39156;SDS011;24889;42.424;25.604;2022-10-16T04:25:37;7.23;;;4.83;;
39156;SDS011;24889;42.424;25.604;2022-10-16T04:28:03;9.17;;;5.73;;
39156;SDS011;24889;42.424;25.604;2022-10-16T04:30:28;5.40;;;4.10;;
39156;SDS011;24889;42.424;25.604;2022-10-16T04:32:54;10.57;;;4.60;;
39156;SDS011;24889;42.424;25.604;2022-10-16T04:35:19;9.23;;;5.37;;
39156;SDS011;24889;42.424;25.604;2022-10-16T04:37:46;12.55;;;5.97;;
39156;SDS011;24889;42.424;25.604;2022-10-16T04:40:12;12.77;;;7.50;;
39156;SDS011;24889;42.424;25.604;2022-10-16T04:42:38;9.68;;;5.78;;
39156;SDS011;24889;42.424;25.604;2022-10-16T04:45:04;9.47;;;5.53;;
39156;SDS011;24889;42.424;25.604;2022-10-16T04:47:30;11.13;;;6.20;;
39156;SDS011;24889;42.424;25.604;2022-10-16T04:49:56;11.38;;;5.28;;
39156;SDS011;24889;42.424;25.604;2022-10-16T04:52:22;8.37;;;4.73;;
39156;SDS011;24889;42.424;25.604;2022-10-16T04:54:49;10.50;;;6.68;;
39156;SDS011;24889;42.424;25.604;2022-10-16T04:57:15;10.52;;;6.07;;
39156;SDS011;24889;42.424;25.604;2022-10-16T04:59:41;9.18;;;5.15;;
39156;SDS011;24889;42.424;25.604;2022-10-16T05:02:07;6.03;;;4.50;;
39156;SDS011;24889;42.424;25.604;2022-10-16T05:04:32;7.23;;;4.40;;
39156;SDS011;24889;42.424;25.604;2022-10-16T05:06:58;8.47;;;3.97;;
39156;SDS011;24889;42.424;25.604;2022-10-16T05:09:23;8.73;;;5.13;;
39156;SDS011;24889;42.424;25.604;2022-10-16T05:11:49;9.23;;;4.53;;
39156;SDS011;24889;42.424;25.604;2022-10-16T05:14:14;7.00;;;4.80;;
39156;SDS011;24889;42.424;25.604;2022-10-16T05:16:39;8.77;;;4.23;;
39156;SDS011;24889;42.424;25.604;2022-10-16T05:19:05;12.80;;;4.50;;
39156;SDS011;24889;42.424;25.604;2022-10-16T05:21:30;5.90;;;3.87;;
39156;SDS011;24889;42.424;25.604;2022-10-16T05:23:56;5.93;;;4.03;;
39156;SDS011;24889;42.424;25.604;2022-10-16T05:26:21;8.10;;;4.90;;
39156;SDS011;24889;42.424;25.604;2022-10-16T05:28:47;8.43;;;4.38;;
39156;SDS011;24889;42.424;25.604;2022-10-16T05:31:12;8.43;;;4.50;;
39156;SDS011;24889;42.424;25.604;2022-10-16T05:33:38;8.63;;;4.57;;
39156;SDS011;24889;42.424;25.604;2022-10-16T05:36:04;9.27;;;4.63;;
39156;SDS011;24889;42.424;25.604;2022-10-16T05:38:32;12.20;;;4.72;;
39156;SDS011;24889;42.424;25.604;2022-10-16T05:40:58;10.02;;;4.43;;
39156;SDS011;24889;42.424;25.604;2022-10-16T05:43:24;7.67;;;4.97;;
39156;SDS011;24889;42.424;25.604;2022-10-16T05:45:56;12.93;;;5.90;;
39156;SDS011;24889;42.424;25.604;2022-10-16T05:48:29;11.18;;;6.57;;
39156;SDS011;24889;42.424;25.604;2022-10-16T05:51:05;16.80;;;5.90;;
39156;SDS011;24889;42.424;25.604;2022-10-16T05:53:32;9.38;;;5.07;;
39156;SDS011;24889;42.424;25.604;2022-10-16T05:55:59;12.85;;;5.97;;
39156;SDS011;24889;42.424;25.604;2022-10-16T05:58:30;10.25;;;5.53;;
39156;SDS011;24889;42.424;25.604;2022-10-16T06:00:57;10.55;;;5.32;;
39156;SDS011;24889;42.424;25.604;2022-10-16T06:03:25;10.65;;;6.05;;
39156;SDS011;24889;42.424;25.604;2022-10-16T06:05:50;7.35;;;4.88;;
39156;SDS011;24889;42.424;25.604;2022-10-16T06:08:17;7.97;;;5.28;;
39156;SDS011;24889;42.424;25.604;2022-10-16T06:10:44;11.73;;;5.75;;
39156;SDS011;24889;42.424;25.604;2022-10-16T06:13:10;8.85;;;5.22;;
39156;SDS011;24889;42.424;25.604;2022-10-16T06:18:04;9.68;;;5.50;;
39156;SDS011;24889;42.424;25.604;2022-10-16T06:20:29;10.82;;;5.45;;
39156;SDS011;24889;42.424;25.604;2022-10-16T06:22:55;7.77;;;5.57;;
39156;SDS011;24889;42.424;25.604;2022-10-16T06:25:20;11.50;;;5.70;;
39156;SDS011;24889;42.424;25.604;2022-10-16T06:27:46;12.10;;;6.67;;
39156;SDS011;24889;42.424;25.604;2022-10-16T06:30:11;11.00;;;5.43;;
39156;SDS011;24889;42.424;25.604;2022-10-16T06:32:37;15.10;;;5.30;;
39156;SDS011;24889;42.424;25.604;2022-10-16T06:35:02;11.47;;;5.20;;
39156;SDS011;24889;42.424;25.604;2022-10-16T06:37:28;8.90;;;5.10;;
39156;SDS011;24889;42.424;25.604;2022-10-16T06:39:53;8.03;;;4.97;;
39156;SDS011;24889;42.424;25.604;2022-10-16T06:42:19;10.50;;;5.30;;
39156;SDS011;24889;42.424;25.604;2022-10-16T06:44:44;9.00;;;4.85;;
39156;SDS011;24889;42.424;25.604;2022-10-16T06:47:10;11.90;;;5.43;;
39156;SDS011;24889;42.424;25.604;2022-10-16T06:49:35;10.87;;;5.60;;
39156;SDS011;24889;42.424;25.604;2022-10-16T06:52:01;8.33;;;5.23;;
39156;SDS011;24889;42.424;25.604;2022-10-16T06:54:27;12.23;;;6.50;;
39156;SDS011;24889;42.424;25.604;2022-10-16T06:56:53;9.77;;;5.60;;
39156;SDS011;24889;42.424;25.604;2022-10-16T07:01:45;16.40;;;9.13;;
39156;SDS011;24889;42.424;25.604;2022-10-16T07:04:10;9.67;;;5.47;;
39156;SDS011;24889;42.424;25.604;2022-10-16T07:06:36;9.40;;;5.97;;
39156;SDS011;24889;42.424;25.604;2022-10-16T07:09:05;10.10;;;6.70;;
39156;SDS011;24889;42.424;25.604;2022-10-16T07:11:32;10.77;;;6.97;;
39156;SDS011;24889;42.424;25.604;2022-10-16T07:16:25;12.88;;;5.93;;
39156;SDS011;24889;42.424;25.604;2022-10-16T07:18:55;9.30;;;5.97;;
39156;SDS011;24889;42.424;25.604;2022-10-16T07:21:24;9.65;;;5.63;;
39156;SDS011;24889;42.424;25.604;2022-10-16T07:23:51;11.00;;;5.80;;
39156;SDS011;24889;42.424;25.604;2022-10-16T07:26:18;12.30;;;6.30;;
39156;SDS011;24889;42.424;25.604;2022-10-16T07:28:43;11.30;;;7.03;;
39156;SDS011;24889;42.424;25.604;2022-10-16T07:31:10;11.70;;;7.70;;
39156;SDS011;24889;42.424;25.604;2022-10-16T07:33:39;16.95;;;9.48;;
39156;SDS011;24889;42.424;25.604;2022-10-16T07:36:06;16.10;;;10.38;;
39156;SDS011;24889;42.424;25.604;2022-10-16T07:38:32;12.45;;;8.32;;
39156;SDS011;24889;42.424;25.604;2022-10-16T07:40:58;13.02;;;7.93;;
39156;SDS011;24889;42.424;25.604;2022-10-16T07:43:25;14.43;;;8.07;;
39156;SDS011;24889;42.424;25.604;2022-10-16T07:45:52;15.35;;;9.15;;
39156;SDS011;24889;42.424;25.604;2022-10-16T07:48:18;14.32;;;8.93;;
39156;SDS011;24889;42.424;25.604;2022-10-16T07:50:44;13.85;;;7.85;;
39156;SDS011;24889;42.424;25.604;2022-10-16T07:53:09;15.15;;;9.38;;
39156;SDS011;24889;42.424;25.604;2022-10-16T07:55:36;14.13;;;8.93;;
39156;SDS011;24889;42.424;25.604;2022-10-16T07:58:01;20.30;;;11.05;;
39156;SDS011;24889;42.424;25.604;2022-10-16T08:00:27;14.07;;;10.30;;
39156;SDS011;24889;42.424;25.604;2022-10-16T08:02:52;17.23;;;10.65;;
39156;SDS011;24889;42.424;25.604;2022-10-16T08:05:18;12.40;;;9.35;;
39156;SDS011;24889;42.424;25.604;2022-10-16T08:07:48;14.50;;;9.73;;
39156;SDS011;24889;42.424;25.604;2022-10-16T08:10:16;18.65;;;10.25;;
39156;SDS011;24889;42.424;25.604;2022-10-16T08:12:42;17.38;;;9.70;;
39156;SDS011;24889;42.424;25.604;2022-10-16T08:15:08;16.35;;;9.70;;
39156;SDS011;24889;42.424;25.604;2022-10-16T08:17:34;12.85;;;8.75;;
39156;SDS011;24889;42.424;25.604;2022-10-16T08:22:25;13.17;;;8.83;;
39156;SDS011;24889;42.424;25.604;2022-10-16T08:24:50;15.32;;;8.98;;
39156;SDS011;24889;42.424;25.604;2022-10-16T08:27:15;11.35;;;8.88;;
39156;SDS011;24889;42.424;25.604;2022-10-16T08:29:41;12.40;;;9.07;;
39156;SDS011;24889;42.424;25.604;2022-10-16T08:32:06;12.18;;;9.38;;
39156;SDS011;24889;42.424;25.604;2022-10-16T08:34:32;14.52;;;10.77;;
39156;SDS011;24889;42.424;25.604;2022-10-16T08:36:57;17.48;;;10.27;;
39156;SDS011;24889;42.424;25.604;2022-10-16T08:39:23;13.40;;;9.38;;
39156;SDS011;24889;42.424;25.604;2022-10-16T08:44:31;12.73;;;9.18;;
39156;SDS011;24889;42.424;25.604;2022-10-16T08:47:18;13.98;;;8.82;;
39156;SDS011;24889;42.424;25.604;2022-10-16T08:50:00;11.90;;;8.30;;
39156;SDS011;24889;42.424;25.604;2022-10-16T08:52:34;15.55;;;8.82;;
39156;SDS011;24889;42.424;25.604;2022-10-16T08:55:03;11.95;;;8.13;;
39156;SDS011;24889;42.424;25.604;2022-10-16T08:57:29;9.48;;;7.32;;
39156;SDS011;24889;42.424;25.604;2022-10-16T09:00:05;14.40;;;7.95;;
39156;SDS011;24889;42.424;25.604;2022-10-16T09:02:38;12.23;;;8.50;;
39156;SDS011;24889;42.424;25.604;2022-10-16T09:21:21;12.90;;;7.80;;
39156;SDS011;24889;42.424;25.604;2022-10-16T09:23:50;18.45;;;9.90;;
39156;SDS011;24889;42.424;25.604;2022-10-16T09:28:44;10.82;;;6.32;;
39156;SDS011;24889;42.424;25.604;2022-10-16T09:31:14;8.27;;;5.38;;
39156;SDS011;24889;42.424;25.604;2022-10-16T09:33:42;11.75;;;6.05;;
39156;SDS011;24889;42.424;25.604;2022-10-16T09:36:10;14.38;;;6.63;;
39156;SDS011;24889;42.424;25.604;2022-10-16T09:38:38;8.73;;;5.90;;
39156;SDS011;24889;42.424;25.604;2022-10-16T09:41:24;12.02;;;5.72;;
39156;SDS011;24889;42.424;25.604;2022-10-16T09:46:26;9.80;;;5.93;;
39156;SDS011;24889;42.424;25.604;2022-10-16T09:48:54;8.93;;;6.50;;
39156;SDS011;24889;42.424;25.604;2022-10-16T09:51:28;9.05;;;5.68;;
39156;SDS011;24889;42.424;25.604;2022-10-16T09:53:59;6.82;;;4.78;;
39156;SDS011;24889;42.424;25.604;2022-10-16T09:56:30;7.72;;;5.68;;
39156;SDS011;24889;42.424;25.604;2022-10-16T09:58:59;9.93;;;5.53;;
39156;SDS011;24889;42.424;25.604;2022-10-16T10:01:29;9.43;;;4.97;;
39156;SDS011;24889;42.424;25.604;2022-10-16T10:04:01;13.48;;;5.65;;
39156;SDS011;24889;42.424;25.604;2022-10-16T10:06:29;10.20;;;5.40;;
39156;SDS011;24889;42.424;25.604;2022-10-16T10:09:28;8.25;;;5.25;;
39156;SDS011;24889;42.424;25.604;2022-10-16T10:12:16;8.82;;;4.97;;
39156;SDS011;24889;42.424;25.604;2022-10-16T10:14:48;7.35;;;4.82;;
39156;SDS011;24889;42.424;25.604;2022-10-16T10:17:21;8.65;;;4.00;;
39156;SDS011;24889;42.424;25.604;2022-10-16T10:27:56;8.55;;;3.45;;
39156;SDS011;24889;42.424;25.604;2022-10-16T10:30:39;6.35;;;4.03;;
39156;SDS011;24889;42.424;25.604;2022-10-16T10:35:49;7.05;;;4.53;;
39156;SDS011;24889;42.424;25.604;2022-10-16T10:38:27;6.82;;;3.38;;
39156;SDS011;24889;42.424;25.604;2022-10-16T10:45:53;8.85;;;3.38;;
39156;SDS011;24889;42.424;25.604;2022-10-16T10:52:00;5.57;;;2.95;;
39156;SDS011;24889;42.424;25.604;2022-10-16T11:02:15;5.72;;;3.10;;
39156;SDS011;24889;42.424;25.604;2022-10-16T11:07:19;16.70;;;3.65;;
39156;SDS011;24889;42.424;25.604;2022-10-16T11:09:51;4.77;;;2.80;;
39156;SDS011;24889;42.424;25.604;2022-10-16T11:12:27;13.50;;;5.47;;
39156;SDS011;24889;42.424;25.604;2022-10-16T11:15:01;9.30;;;5.35;;
39156;SDS011;24889;42.424;25.604;2022-10-16T11:17:32;8.30;;;5.28;;
39156;SDS011;24889;42.424;25.604;2022-10-16T11:22:48;9.05;;;4.05;;
39156;SDS011;24889;42.424;25.604;2022-10-16T11:25:20;6.55;;;3.90;;
39156;SDS011;24889;42.424;25.604;2022-10-16T11:27:50;8.82;;;3.75;;
39156;SDS011;24889;42.424;25.604;2022-10-16T11:30:25;7.00;;;3.17;;
39156;SDS011;24889;42.424;25.604;2022-10-16T11:46:51;7.97;;;4.70;;
39156;SDS011;24889;42.424;25.604;2022-10-16T11:49:25;8.63;;;5.30;;
39156;SDS011;24889;42.424;25.604;2022-10-16T11:55:13;8.75;;;5.72;;
39156;SDS011;24889;42.424;25.604;2022-10-16T11:57:48;8.75;;;5.35;;
39156;SDS011;24889;42.424;25.604;2022-10-16T12:03:56;10.60;;;5.18;;
39156;SDS011;24889;42.424;25.604;2022-10-16T12:08:52;8.90;;;5.53;;
39156;SDS011;24889;42.424;25.604;2022-10-16T12:11:23;7.70;;;4.88;;
39156;SDS011;24889;42.424;25.604;2022-10-16T12:16:59;12.63;;;4.38;;
39156;SDS011;24889;42.424;25.604;2022-10-16T12:19:25;10.18;;;5.78;;
39156;SDS011;24889;42.424;25.604;2022-10-16T12:21:55;12.07;;;5.05;;
39156;SDS011;24889;42.424;25.604;2022-10-16T12:26:51;11.13;;;4.88;;
39156;SDS011;24889;42.424;25.604;2022-10-16T12:32:29;7.85;;;4.47;;
39156;SDS011;24889;42.424;25.604;2022-10-16T12:34:57;8.70;;;3.93;;
39156;SDS011;24889;42.424;25.604;2022-10-16T12:37:25;10.50;;;4.63;;
39156;SDS011;24889;42.424;25.604;2022-10-16T12:39:54;6.13;;;4.28;;
39156;SDS011;24889;42.424;25.604;2022-10-16T12:44:52;6.63;;;4.25;;
39156;SDS011;24889;42.424;25.604;2022-10-16T12:47:24;8.02;;;4.68;;
39156;SDS011;24889;42.424;25.604;2022-10-16T12:50:03;7.00;;;3.97;;
39156;SDS011;24889;42.424;25.604;2022-10-16T12:55:04;5.80;;;4.00;;
39156;SDS011;24889;42.424;25.604;2022-10-16T13:03:08;8.63;;;3.65;;
39156;SDS011;24889;42.424;25.604;2022-10-16T13:17:23;8.15;;;4.90;;
39156;SDS011;24889;42.424;25.604;2022-10-16T13:28:22;10.35;;;4.40;;
39156;SDS011;24889;42.424;25.604;2022-10-16T13:30:54;6.65;;;4.32;;
39156;SDS011;24889;42.424;25.604;2022-10-16T13:36:02;5.63;;;3.05;;
39156;SDS011;24889;42.424;25.604;2022-10-16T13:38:30;5.55;;;3.83;;
39156;SDS011;24889;42.424;25.604;2022-10-16T13:43:29;9.90;;;3.50;;
39156;SDS011;24889;42.424;25.604;2022-10-16T13:46:00;7.75;;;3.88;;
39156;SDS011;24889;42.424;25.604;2022-10-16T13:48:30;5.78;;;3.45;;
39156;SDS011;24889;42.424;25.604;2022-10-16T13:51:00;11.55;;;3.88;;
39156;SDS011;24889;42.424;25.604;2022-10-16T13:53:29;9.68;;;4.20;;
39156;SDS011;24889;42.424;25.604;2022-10-16T13:55:55;10.82;;;3.58;;
39156;SDS011;24889;42.424;25.604;2022-10-16T13:58:21;6.85;;;4.07;;
39156;SDS011;24889;42.424;25.604;2022-10-16T14:00:53;7.87;;;3.83;;
39156;SDS011;24889;42.424;25.604;2022-10-16T14:03:19;7.63;;;4.10;;
39156;SDS011;24889;42.424;25.604;2022-10-16T14:05:47;10.35;;;5.85;;
39156;SDS011;24889;42.424;25.604;2022-10-16T14:08:13;5.60;;;3.70;;
39156;SDS011;24889;42.424;25.604;2022-10-16T14:10:38;7.57;;;3.90;;
39156;SDS011;24889;42.424;25.604;2022-10-16T14:13:05;10.15;;;5.00;;
39156;SDS011;24889;42.424;25.604;2022-10-16T14:15:32;7.53;;;4.07;;
39156;SDS011;24889;42.424;25.604;2022-10-16T14:18:00;10.23;;;5.75;;
39156;SDS011;24889;42.424;25.604;2022-10-16T14:20:28;11.15;;;4.50;;
39156;SDS011;24889;42.424;25.604;2022-10-16T14:23:16;6.55;;;4.07;;
39156;SDS011;24889;42.424;25.604;2022-10-16T14:25:45;10.60;;;4.80;;
39156;SDS011;24889;42.424;25.604;2022-10-16T14:30:50;7.43;;;4.45;;
39156;SDS011;24889;42.424;25.604;2022-10-16T14:33:24;8.02;;;4.50;;
39156;SDS011;24889;42.424;25.604;2022-10-16T14:36:23;13.02;;;6.38;;
39156;SDS011;24889;42.424;25.604;2022-10-16T14:39:00;11.60;;;4.60;;
39156;SDS011;24889;42.424;25.604;2022-10-16T14:41:29;9.13;;;4.77;;
39156;SDS011;24889;42.424;25.604;2022-10-16T14:43:57;9.27;;;5.32;;
39156;SDS011;24889;42.424;25.604;2022-10-16T14:46:37;13.35;;;8.68;;
39156;SDS011;24889;42.424;25.604;2022-10-16T14:51:42;11.95;;;7.35;;
39156;SDS011;24889;42.424;25.604;2022-10-16T14:54:10;14.70;;;7.88;;
39156;SDS011;24889;42.424;25.604;2022-10-16T14:56:53;9.32;;;6.45;;
39156;SDS011;24889;42.424;25.604;2022-10-16T15:01:54;9.48;;;5.82;;
39156;SDS011;24889;42.424;25.604;2022-10-16T15:04:20;14.45;;;7.45;;
39156;SDS011;24889;42.424;25.604;2022-10-16T15:06:46;10.90;;;5.07;;
39156;SDS011;24889;42.424;25.604;2022-10-16T15:09:11;11.43;;;5.80;;
39156;SDS011;24889;42.424;25.604;2022-10-16T15:11:37;15.07;;;5.33;;
39156;SDS011;24889;42.424;25.604;2022-10-16T15:14:03;9.93;;;5.63;;
39156;SDS011;24889;42.424;25.604;2022-10-16T15:16:29;9.93;;;5.82;;
39156;SDS011;24889;42.424;25.604;2022-10-16T15:18:55;21.23;;;7.03;;
39156;SDS011;24889;42.424;25.604;2022-10-16T15:23:52;11.57;;;8.20;;
39156;SDS011;24889;42.424;25.604;2022-10-16T15:26:17;25.90;;;11.70;;
39156;SDS011;24889;42.424;25.604;2022-10-16T15:28:43;17.10;;;11.00;;
39156;SDS011;24889;42.424;25.604;2022-10-16T15:31:09;22.05;;;11.20;;
39156;SDS011;24889;42.424;25.604;2022-10-16T15:33:34;23.67;;;13.27;;
39156;SDS011;24889;42.424;25.604;2022-10-16T15:36:00;19.75;;;11.70;;
39156;SDS011;24889;42.424;25.604;2022-10-16T15:38:28;17.08;;;8.48;;
39156;SDS011;24889;42.424;25.604;2022-10-16T15:40:54;13.93;;;6.70;;
39156;SDS011;24889;42.424;25.604;2022-10-16T15:43:20;13.60;;;8.55;;
39156;SDS011;24889;42.424;25.604;2022-10-16T15:46:05;17.30;;;8.50;;
39156;SDS011;24889;42.424;25.604;2022-10-16T15:48:35;20.35;;;9.35;;
39156;SDS011;24889;42.424;25.604;2022-10-16T15:51:04;27.80;;;13.07;;
39156;SDS011;24889;42.424;25.604;2022-10-16T15:53:30;21.77;;;13.93;;
39156;SDS011;24889;42.424;25.604;2022-10-16T15:55:56;28.60;;;16.43;;
39156;SDS011;24889;42.424;25.604;2022-10-16T15:58:22;18.97;;;12.20;;
39156;SDS011;24889;42.424;25.604;2022-10-16T16:00:54;18.60;;;10.75;;
39156;SDS011;24889;42.424;25.604;2022-10-16T16:03:21;19.80;;;10.02;;
39156;SDS011;24889;42.424;25.604;2022-10-16T16:05:46;20.20;;;9.03;;
39156;SDS011;24889;42.424;25.604;2022-10-16T16:08:12;12.17;;;7.30;;
39156;SDS011;24889;42.424;25.604;2022-10-16T16:10:37;15.97;;;7.97;;
39156;SDS011;24889;42.424;25.604;2022-10-16T16:13:03;15.27;;;7.30;;
39156;SDS011;24889;42.424;25.604;2022-10-16T16:15:28;14.20;;;7.30;;
39156;SDS011;24889;42.424;25.604;2022-10-16T16:17:53;14.40;;;7.00;;
39156;SDS011;24889;42.424;25.604;2022-10-16T16:20:19;11.87;;;7.03;;
39156;SDS011;24889;42.424;25.604;2022-10-16T16:22:45;14.90;;;7.05;;
39156;SDS011;24889;42.424;25.604;2022-10-16T16:25:10;17.87;;;8.17;;
39156;SDS011;24889;42.424;25.604;2022-10-16T16:27:36;15.23;;;8.03;;
39156;SDS011;24889;42.424;25.604;2022-10-16T16:30:03;20.80;;;10.85;;
39156;SDS011;24889;42.424;25.604;2022-10-16T16:32:32;26.65;;;15.85;;
39156;SDS011;24889;42.424;25.604;2022-10-16T16:34:59;17.95;;;8.77;;
39156;SDS011;24889;42.424;25.604;2022-10-16T16:37:24;17.50;;;10.60;;
39156;SDS011;24889;42.424;25.604;2022-10-16T16:39:50;19.57;;;12.33;;
39156;SDS011;24889;42.424;25.604;2022-10-16T16:42:16;14.18;;;7.68;;
39156;SDS011;24889;42.424;25.604;2022-10-16T16:44:41;11.03;;;6.80;;
39156;SDS011;24889;42.424;25.604;2022-10-16T16:47:07;11.50;;;7.13;;
39156;SDS011;24889;42.424;25.604;2022-10-16T16:49:32;14.40;;;8.90;;
39156;SDS011;24889;42.424;25.604;2022-10-16T16:51:58;13.17;;;6.67;;
39156;SDS011;24889;42.424;25.604;2022-10-16T16:54:23;12.73;;;7.47;;
39156;SDS011;24889;42.424;25.604;2022-10-16T16:56:49;16.88;;;9.43;;
39156;SDS011;24889;42.424;25.604;2022-10-16T16:59:16;13.23;;;7.13;;
39156;SDS011;24889;42.424;25.604;2022-10-16T17:01:44;8.40;;;6.00;;
39156;SDS011;24889;42.424;25.604;2022-10-16T17:04:10;13.13;;;5.70;;
39156;SDS011;24889;42.424;25.604;2022-10-16T17:06:36;12.00;;;7.53;;
39156;SDS011;24889;42.424;25.604;2022-10-16T17:09:02;13.90;;;6.53;;
39156;SDS011;24889;42.424;25.604;2022-10-16T17:11:29;16.92;;;6.75;;
39156;SDS011;24889;42.424;25.604;2022-10-16T17:13:55;13.23;;;6.18;;
39156;SDS011;24889;42.424;25.604;2022-10-16T17:16:24;14.40;;;8.07;;
39156;SDS011;24889;42.424;25.604;2022-10-16T17:18:53;13.07;;;6.53;;
39156;SDS011;24889;42.424;25.604;2022-10-16T17:21:19;8.88;;;5.88;;
39156;SDS011;24889;42.424;25.604;2022-10-16T17:23:44;10.68;;;6.88;;